createdAt,value
2023-01-13T00:01:08.988Z,3.03
2023-01-13T00:03:36.920Z,2.73
2023-01-13T00:06:05.074Z,3.30
2023-01-13T00:08:33.349Z,4.60
2023-01-13T00:11:01.197Z,1.83
2023-01-13T00:13:31.711Z,3.20
2023-01-13T00:16:00.023Z,1.60
2023-01-13T00:18:29.067Z,3.30
2023-01-13T00:21:00.587Z,3.07
2023-01-13T00:23:28.720Z,1.30
2023-01-13T00:25:56.933Z,1.97
2023-01-13T00:28:24.832Z,2.23
2023-01-13T00:30:54.002Z,2.43
2023-01-13T00:33:21.705Z,4.30
2023-01-13T00:35:56.657Z,3.50
2023-01-13T00:38:24.571Z,1.90
2023-01-13T00:40:58.974Z,1.83
2023-01-13T00:43:26.517Z,2.43
2023-01-13T00:45:56.060Z,3.00
2023-01-13T00:48:25.022Z,2.47
2023-01-13T00:50:56.238Z,2.60
2023-01-13T00:53:24.232Z,1.70
2023-01-13T00:55:59.888Z,2.23
2023-01-13T00:58:27.742Z,1.90
2023-01-13T01:01:00.465Z,3.00
2023-01-13T01:03:29.597Z,1.97
2023-01-13T01:05:57.297Z,2.80
2023-01-13T01:08:25.217Z,1.40
2023-01-13T01:11:01.338Z,1.67
2023-01-13T01:13:29.441Z,3.33
2023-01-13T01:15:58.488Z,2.20
2023-01-13T01:18:26.815Z,3.10
2023-01-13T01:20:54.499Z,4.37
2023-01-13T01:23:22.285Z,3.20
2023-01-13T01:25:50.375Z,1.87
2023-01-13T01:28:19.444Z,4.83
2023-01-13T01:30:47.288Z,2.13
2023-01-13T01:33:17.140Z,3.20
2023-01-13T01:35:44.871Z,3.03
2023-01-13T01:38:12.685Z,3.00
2023-01-13T01:40:41.019Z,2.10
2023-01-13T01:43:31.133Z,2.10
2023-01-13T01:45:59.665Z,2.80
2023-01-13T01:48:29.582Z,1.30
2023-01-13T01:50:57.790Z,2.37
2023-01-13T01:53:28.751Z,1.53
2023-01-13T01:55:57.209Z,1.43
2023-01-13T01:58:27.178Z,2.17
2023-01-13T02:00:55.630Z,1.50
2023-01-13T02:03:24.100Z,2.43
2023-01-13T02:05:53.598Z,1.47
2023-01-13T02:08:21.814Z,1.10
2023-01-13T02:10:51.989Z,2.20
2023-01-13T02:13:19.221Z,1.77
2023-01-13T02:15:50.035Z,2.53
2023-01-13T02:18:28.382Z,2.13
2023-01-13T02:21:13.707Z,3.57
2023-01-13T02:24:26.020Z,2.43
2023-01-13T02:27:23.668Z,3.03
2023-01-13T02:30:19.604Z,1.93
2023-01-13T02:32:51.755Z,2.23
2023-01-13T02:35:22.548Z,2.70
2023-01-13T02:37:51.104Z,1.10
2023-01-13T02:40:21.059Z,2.03
2023-01-13T02:43:10.100Z,1.30
2023-01-13T02:45:41.101Z,1.53
2023-01-13T02:48:10.703Z,1.00
2023-01-13T02:50:41.036Z,1.30
2023-01-13T02:53:11.705Z,1.30
2023-01-13T02:55:41.321Z,2.30
2023-01-13T02:58:11.492Z,1.53
2023-01-13T03:00:41.545Z,1.23
2023-01-13T03:03:09.196Z,1.20
2023-01-13T03:05:37.374Z,1.00
2023-01-13T03:08:15.730Z,2.03
2023-01-13T03:10:57.322Z,1.10
2023-01-13T03:13:37.532Z,1.00
2023-01-13T03:16:11.868Z,1.00
2023-01-13T03:18:44.354Z,3.97
2023-01-13T03:21:16.126Z,1.63
2023-01-13T03:23:50.641Z,0.97
2023-01-13T03:26:22.220Z,3.63
2023-01-13T03:28:53.190Z,1.07
2023-01-13T03:31:25.366Z,1.80
2023-01-13T03:33:55.785Z,1.33
2023-01-13T03:36:25.852Z,1.30
2023-01-13T03:38:54.929Z,2.03
2023-01-13T03:41:24.842Z,1.47
2023-01-13T03:44:15.773Z,1.60
2023-01-13T03:46:46.947Z,0.97
2023-01-13T03:49:18.098Z,8.63
2023-01-13T03:51:49.175Z,3.57
2023-01-13T03:54:19.087Z,3.30
2023-01-13T03:56:48.440Z,1.60
2023-01-13T03:59:18.228Z,2.27
2023-01-13T04:01:49.952Z,3.07
2023-01-13T04:04:19.612Z,1.67
2023-01-13T04:06:50.397Z,4.77
2023-01-13T04:09:22.450Z,0.90
2023-01-13T04:11:53.064Z,1.87
2023-01-13T04:14:21.629Z,2.70
2023-01-13T04:16:50.936Z,4.37
2023-01-13T04:19:18.995Z,4.13
2023-01-13T04:21:46.617Z,13.47
2023-01-13T04:24:14.388Z,2.10
2023-01-13T04:26:42.788Z,3.23
2023-01-13T04:29:10.522Z,1.20
2023-01-13T04:31:38.216Z,1.53
2023-01-13T04:34:09.313Z,1.17
2023-01-13T04:36:36.947Z,1.60
2023-01-13T04:39:04.979Z,1.07
2023-01-13T04:41:52.900Z,2.50
2023-01-13T04:44:20.589Z,2.10
2023-01-13T04:46:48.363Z,1.30
2023-01-13T04:49:17.814Z,3.23
2023-01-13T04:51:45.401Z,3.17
2023-01-13T04:54:13.490Z,1.33
2023-01-13T04:56:41.313Z,1.83
2023-01-13T04:59:09.903Z,2.00
2023-01-13T05:01:37.662Z,1.50
2023-01-13T05:04:05.832Z,1.80
2023-01-13T05:06:34.864Z,2.13
2023-01-13T05:09:02.490Z,3.63
2023-01-13T05:11:47.935Z,1.10
2023-01-13T05:14:33.121Z,1.20
2023-01-13T05:17:03.605Z,1.13
2023-01-13T05:19:32.452Z,1.30
2023-01-13T05:22:19.755Z,1.40
2023-01-13T05:25:05.063Z,1.40
2023-01-13T05:27:33.734Z,8.13
2023-01-13T05:30:01.577Z,2.80
2023-01-13T05:32:29.591Z,1.30
2023-01-13T05:34:57.361Z,1.87
2023-01-13T05:37:26.814Z,1.40
2023-01-13T05:40:12.113Z,2.83
2023-01-13T05:42:57.602Z,1.80
2023-01-13T05:45:27.066Z,1.77
2023-01-13T05:47:54.688Z,2.83
2023-01-13T05:50:23.938Z,1.00
2023-01-13T05:52:53.091Z,5.10
2023-01-13T05:55:20.700Z,1.70
2023-01-13T05:57:48.278Z,1.00
2023-01-13T06:00:16.898Z,1.57
2023-01-13T06:02:44.579Z,1.10
2023-01-13T06:05:12.547Z,1.00
2023-01-13T06:07:40.522Z,3.53
2023-01-13T06:10:10.914Z,1.77
2023-01-13T06:12:38.645Z,2.43
2023-01-13T06:15:06.806Z,2.10
2023-01-13T06:17:34.467Z,3.53
2023-01-13T06:20:02.308Z,2.37
2023-01-13T06:22:33.067Z,4.03
2023-01-13T06:25:00.879Z,4.03
2023-01-13T06:27:30.235Z,3.50
2023-01-13T06:29:58.530Z,1.80
2023-01-13T06:32:28.024Z,1.60
2023-01-13T06:34:57.482Z,2.37
2023-01-13T06:37:26.457Z,4.80
2023-01-13T06:39:58.444Z,3.83
2023-01-13T06:42:44.426Z,1.43
2023-01-13T06:45:13.519Z,1.30
2023-01-13T06:47:43.566Z,2.37
2023-01-13T06:50:12.067Z,1.13
2023-01-13T06:52:39.747Z,3.00
2023-01-13T06:55:07.674Z,2.60
2023-01-13T06:57:35.904Z,2.40
2023-01-13T07:00:03.805Z,3.30
2023-01-13T07:02:33.444Z,5.77
2023-01-13T07:05:01.391Z,1.60
2023-01-13T07:07:29.124Z,1.80
2023-01-13T07:09:56.812Z,2.80
2023-01-13T07:12:25.009Z,2.47
2023-01-13T07:15:10.324Z,1.43
2023-01-13T07:17:39.627Z,1.47
2023-01-13T07:20:07.915Z,1.57
2023-01-13T07:22:36.063Z,3.93
2023-01-13T07:25:04.469Z,2.60
2023-01-13T07:27:32.141Z,3.20
2023-01-13T07:30:00.814Z,4.23
2023-01-13T07:32:28.850Z,2.50
2023-01-13T07:34:58.575Z,3.70
2023-01-13T07:37:26.260Z,3.63
2023-01-13T07:39:53.963Z,1.20
2023-01-13T07:42:39.103Z,2.50
2023-01-13T07:45:10.889Z,1.63
2023-01-13T07:47:40.569Z,4.40
2023-01-13T07:50:10.556Z,2.10
2023-01-13T07:52:38.380Z,3.40
2023-01-13T07:55:06.331Z,2.87
2023-01-13T07:57:34.286Z,2.40
2023-01-13T08:00:01.904Z,7.30
2023-01-13T08:02:32.821Z,2.67
2023-01-13T08:05:01.027Z,2.60
2023-01-13T08:07:30.082Z,5.43
2023-01-13T08:09:57.745Z,2.03
2023-01-13T08:12:51.950Z,1.47
2023-01-13T08:15:23.458Z,5.43
2023-01-13T08:17:51.384Z,3.83
2023-01-13T08:20:19.371Z,2.47
2023-01-13T08:22:48.417Z,1.43
2023-01-13T08:25:16.323Z,3.00
2023-01-13T08:27:43.968Z,3.47
2023-01-13T08:30:11.998Z,4.43
2023-01-13T08:32:39.917Z,2.20
2023-01-13T08:35:08.423Z,5.00
2023-01-13T08:37:36.117Z,2.40
2023-01-13T08:40:06.055Z,2.67
2023-01-13T08:42:33.862Z,5.10
2023-01-13T08:45:01.570Z,8.40
2023-01-13T08:47:29.519Z,4.20
2023-01-13T08:49:57.242Z,2.17
2023-01-13T08:52:25.435Z,3.10
2023-01-13T08:54:53.093Z,2.40
2023-01-13T08:57:22.680Z,2.37
2023-01-13T08:59:50.396Z,4.00
2023-01-13T09:02:19.777Z,3.57
2023-01-13T09:04:48.362Z,4.47
2023-01-13T09:07:16.450Z,4.03
2023-01-13T09:09:44.415Z,2.33
2023-01-13T09:12:30.306Z,3.23
2023-01-13T09:14:59.309Z,4.67
2023-01-13T09:17:27.322Z,1.77
2023-01-13T09:19:54.916Z,5.90
2023-01-13T09:22:27.148Z,3.20
2023-01-13T09:24:54.947Z,3.27
2023-01-13T09:27:22.917Z,7.17
2023-01-13T09:29:51.424Z,6.70
2023-01-13T09:32:20.560Z,40.03
2023-01-13T09:35:05.117Z,41.93
2023-01-13T09:37:34.801Z,3.53
2023-01-13T09:40:03.122Z,3.10
2023-01-13T09:42:56.551Z,14.67
2023-01-13T09:45:26.029Z,14.00
2023-01-13T09:47:58.340Z,4.90
2023-01-13T09:50:30.586Z,8.10
2023-01-13T09:52:59.134Z,8.30
2023-01-13T09:55:30.135Z,10.80
2023-01-13T09:57:58.267Z,7.77
2023-01-13T10:00:27.008Z,4.63
2023-01-13T10:03:10.278Z,6.37
2023-01-13T10:05:38.994Z,7.57
2023-01-13T10:08:12.814Z,2.07
2023-01-13T10:10:42.853Z,4.17
2023-01-13T10:13:14.301Z,3.00
2023-01-13T10:15:43.866Z,5.47
2023-01-13T10:18:15.627Z,2.43
2023-01-13T10:20:50.727Z,6.70
2023-01-13T10:23:34.556Z,3.77
2023-01-13T10:26:10.052Z,5.97
2023-01-13T10:28:38.092Z,8.63
2023-01-13T10:31:11.219Z,3.63
2023-01-13T10:33:41.019Z,2.60
2023-01-13T10:36:14.510Z,2.10
2023-01-13T10:38:43.338Z,4.40
2023-01-13T10:41:18.688Z,5.20
2023-01-13T10:43:47.037Z,2.93
2023-01-13T10:46:16.685Z,3.27
2023-01-13T10:48:56.133Z,4.00
2023-01-13T10:51:25.100Z,2.20
2023-01-13T10:53:54.763Z,2.53
2023-01-13T10:56:23.846Z,3.67
2023-01-13T10:58:51.557Z,3.20
2023-01-13T11:01:25.602Z,4.50
2023-01-13T11:03:55.682Z,8.23
2023-01-13T11:06:25.228Z,2.70
2023-01-13T11:08:55.229Z,3.30
2023-01-13T11:11:27.561Z,2.23
2023-01-13T11:14:15.111Z,3.00
2023-01-13T11:16:52.920Z,2.80
2023-01-13T11:19:24.977Z,2.27
2023-01-13T11:21:55.810Z,5.60
2023-01-13T11:24:28.100Z,5.30
2023-01-13T11:26:58.124Z,2.83
2023-01-13T11:29:28.654Z,5.23
2023-01-13T11:32:00.475Z,3.90
2023-01-13T11:34:32.551Z,2.47
2023-01-13T11:37:02.676Z,3.90
2023-01-13T11:39:35.792Z,4.77
2023-01-13T11:42:24.511Z,4.63
2023-01-13T11:44:56.817Z,3.33
2023-01-13T11:47:25.890Z,6.03
2023-01-13T11:49:55.239Z,3.10
2023-01-13T11:52:25.497Z,4.67
2023-01-13T11:55:10.907Z,6.10
2023-01-13T11:57:44.705Z,4.93
2023-01-13T12:00:18.711Z,6.97
2023-01-13T12:02:51.674Z,3.37
2023-01-13T12:05:24.697Z,4.97
2023-01-13T12:07:56.346Z,3.80
2023-01-13T12:10:32.061Z,4.03
2023-01-13T12:13:04.346Z,8.60
2023-01-13T12:15:50.691Z,15.53
2023-01-13T12:18:30.332Z,6.57
2023-01-13T12:21:07.027Z,6.40
2023-01-13T12:23:38.327Z,6.23
2023-01-13T12:26:07.794Z,5.00
2023-01-13T12:28:41.575Z,6.87
2023-01-13T12:31:09.905Z,9.67
2023-01-13T12:33:44.224Z,13.10
2023-01-13T12:36:17.017Z,9.00
2023-01-13T12:38:49.622Z,5.80
2023-01-13T12:41:24.657Z,5.47
2023-01-13T12:44:10.868Z,6.03
2023-01-13T12:46:56.755Z,8.93
2023-01-13T12:49:25.978Z,5.40
2023-01-13T12:52:14.843Z,5.53
2023-01-13T12:55:01.388Z,7.90
2023-01-13T12:57:30.916Z,5.40
2023-01-13T13:00:14.147Z,10.90
2023-01-13T13:02:42.512Z,4.20
2023-01-13T13:05:29.119Z,4.83
2023-01-13T13:08:05.425Z,7.47
2023-01-13T13:10:35.584Z,6.90
2023-01-13T13:13:18.216Z,7.40
2023-01-13T13:15:47.058Z,4.87
2023-01-13T13:18:27.143Z,5.47
2023-01-13T13:21:05.823Z,6.53
2023-01-13T13:23:47.940Z,9.00
2023-01-13T13:26:26.142Z,6.23
2023-01-13T13:28:59.648Z,6.37
2023-01-13T13:31:36.378Z,10.63
2023-01-13T13:34:11.050Z,7.80
2023-01-13T13:36:50.472Z,7.43
2023-01-13T13:39:39.875Z,5.20
2023-01-13T13:42:30.494Z,10.80
2023-01-13T13:45:18.323Z,15.70
2023-01-13T13:47:46.440Z,7.70
2023-01-13T13:50:16.129Z,7.20
2023-01-13T13:52:51.733Z,7.70
2023-01-13T13:55:20.817Z,5.40
2023-01-13T13:57:49.490Z,4.33
2023-01-13T14:00:24.023Z,6.00
2023-01-13T14:02:53.189Z,6.10
2023-01-13T14:05:23.322Z,4.67
2023-01-13T14:07:52.367Z,7.97
2023-01-13T14:10:21.417Z,8.80
2023-01-13T14:12:49.699Z,8.07
2023-01-13T14:15:26.844Z,9.40
2023-01-13T14:17:54.779Z,9.63
2023-01-13T14:20:22.434Z,8.23
2023-01-13T14:22:50.894Z,3.67
2023-01-13T14:25:32.057Z,6.67
2023-01-13T14:28:01.414Z,6.60
2023-01-13T14:30:30.741Z,7.83
2023-01-13T14:32:59.727Z,8.00
2023-01-13T14:35:27.311Z,8.77
2023-01-13T14:38:02.752Z,5.43
2023-01-13T14:40:46.788Z,10.83
2023-01-13T14:43:16.309Z,11.20
2023-01-13T14:45:57.399Z,7.40
2023-01-13T14:48:31.024Z,5.63
2023-01-13T14:50:59.762Z,5.30
2023-01-13T14:53:36.872Z,7.10
2023-01-13T14:56:19.429Z,5.67
2023-01-13T14:58:49.120Z,6.57
2023-01-13T15:01:28.921Z,5.00
2023-01-13T15:04:15.939Z,9.80
2023-01-13T15:06:47.663Z,6.83
2023-01-13T15:09:15.363Z,7.00
2023-01-13T15:11:43.297Z,7.10
2023-01-13T15:14:11.691Z,7.70
2023-01-13T15:16:40.747Z,5.10
2023-01-13T15:19:10.211Z,7.67
2023-01-13T15:21:38.203Z,7.63
2023-01-13T15:24:06.318Z,6.97
2023-01-13T15:26:34.847Z,7.40
2023-01-13T15:29:05.215Z,7.57
2023-01-13T15:31:33.001Z,9.20
2023-01-13T15:34:03.017Z,10.93
2023-01-13T15:36:32.373Z,8.90
2023-01-13T15:39:01.017Z,7.63
2023-01-13T15:41:46.973Z,8.90
2023-01-13T15:44:33.556Z,6.73
2023-01-13T15:47:02.788Z,9.27
2023-01-13T15:49:36.118Z,9.93
2023-01-13T15:52:06.291Z,7.10
2023-01-13T15:54:33.984Z,9.00
2023-01-13T15:57:01.807Z,8.30
2023-01-13T15:59:31.589Z,7.57
2023-01-13T16:01:59.187Z,11.30
2023-01-13T16:04:27.005Z,8.00
2023-01-13T16:06:56.192Z,8.83
2023-01-13T16:09:23.827Z,10.23
2023-01-13T16:11:51.519Z,8.33
2023-01-13T16:14:19.371Z,8.40
2023-01-13T16:16:47.060Z,9.57
2023-01-13T16:19:15.010Z,10.77
2023-01-13T16:21:42.862Z,7.10
2023-01-13T16:24:11.995Z,6.30
2023-01-13T16:26:39.838Z,7.17
2023-01-13T16:29:08.050Z,6.07
2023-01-13T16:31:36.089Z,7.80
2023-01-13T16:34:05.220Z,5.60
2023-01-13T16:36:35.419Z,9.17
2023-01-13T16:39:03.354Z,5.97
2023-01-13T16:41:32.305Z,4.70
2023-01-13T16:44:05.926Z,6.80
2023-01-13T16:46:33.986Z,8.83
2023-01-13T16:49:03.190Z,5.80
2023-01-13T16:51:31.204Z,5.97
2023-01-13T16:53:58.879Z,9.13
2023-01-13T16:56:27.557Z,9.83
2023-01-13T16:58:57.614Z,9.20
2023-01-13T17:01:26.448Z,4.83
2023-01-13T17:03:54.214Z,6.40
2023-01-13T17:06:25.318Z,5.13
2023-01-13T17:08:53.991Z,4.87
2023-01-13T17:11:22.002Z,8.17
2023-01-13T17:13:50.859Z,7.37
2023-01-13T17:16:21.010Z,6.70
2023-01-13T17:18:48.906Z,5.83
2023-01-13T17:21:16.944Z,5.80
2023-01-13T17:23:44.723Z,7.93
2023-01-13T17:26:27.255Z,6.10
2023-01-13T17:28:54.930Z,6.30
2023-01-13T17:31:24.573Z,7.03
2023-01-13T17:33:52.287Z,10.10
2023-01-13T17:36:19.883Z,10.27
2023-01-13T17:38:47.991Z,9.93
2023-01-13T17:41:16.171Z,5.47
2023-01-13T17:43:43.852Z,10.60
2023-01-13T17:46:12.341Z,8.00
2023-01-13T17:48:41.814Z,7.50
2023-01-13T17:51:12.279Z,10.20
2023-01-13T17:53:40.731Z,14.20
2023-01-13T17:56:09.198Z,10.20
2023-01-13T17:58:37.297Z,6.33
2023-01-13T18:01:09.461Z,10.13
2023-01-13T18:03:38.033Z,10.03
2023-01-13T18:06:07.988Z,6.37
2023-01-13T18:08:35.606Z,10.00
2023-01-13T18:11:03.288Z,7.93
2023-01-13T18:13:31.499Z,7.60
2023-01-13T18:16:00.563Z,10.27
2023-01-13T18:18:28.299Z,11.57
2023-01-13T18:21:13.523Z,5.10
2023-01-13T18:24:11.568Z,7.20
2023-01-13T18:26:57.070Z,6.50
2023-01-13T18:29:24.940Z,15.43
2023-01-13T18:31:53.337Z,7.30
2023-01-13T18:34:21.978Z,9.20
2023-01-13T18:36:49.648Z,6.50
2023-01-13T18:39:18.963Z,10.27
2023-01-13T18:42:06.030Z,8.17
2023-01-13T18:44:33.656Z,7.73
2023-01-13T18:47:01.292Z,9.23
2023-01-13T18:49:29.123Z,8.60
2023-01-13T18:51:56.828Z,7.60
2023-01-13T18:54:27.046Z,11.50
2023-01-13T18:56:54.890Z,9.70
2023-01-13T18:59:22.518Z,11.20
2023-01-13T19:01:52.689Z,9.40
2023-01-13T19:04:20.567Z,8.40
2023-01-13T19:06:51.328Z,12.97
2023-01-13T19:09:20.251Z,7.33
2023-01-13T19:11:50.459Z,6.50
2023-01-13T19:14:34.135Z,6.40
2023-01-13T19:17:02.259Z,9.70
2023-01-13T19:19:29.874Z,10.07
2023-01-13T19:21:57.894Z,11.63
2023-01-13T19:24:26.412Z,10.30
2023-01-13T19:26:56.796Z,15.00
2023-01-13T19:29:25.968Z,9.00
2023-01-13T19:31:53.795Z,8.13
2023-01-13T19:34:22.849Z,6.47
2023-01-13T19:36:52.062Z,8.87
2023-01-13T19:39:19.918Z,6.93
2023-01-13T19:42:05.205Z,9.20
2023-01-13T19:44:51.738Z,7.47
2023-01-13T19:47:20.139Z,7.73
2023-01-13T19:49:47.812Z,5.33
2023-01-13T19:52:15.588Z,5.43
2023-01-13T19:54:45.178Z,13.40
2023-01-13T19:57:12.914Z,7.47
2023-01-13T19:59:42.356Z,7.70
2023-01-13T20:02:13.911Z,9.47
2023-01-13T20:04:44.602Z,11.80
2023-01-13T20:07:14.537Z,12.13
2023-01-13T20:09:44.115Z,9.50
2023-01-13T20:12:13.553Z,13.57
2023-01-13T20:14:43.672Z,5.10
2023-01-13T20:17:12.788Z,9.60
2023-01-13T20:19:40.621Z,5.10
2023-01-13T20:22:09.189Z,7.97
2023-01-13T20:24:36.953Z,9.00
2023-01-13T20:27:05.504Z,12.17
2023-01-13T20:29:33.660Z,6.70
2023-01-13T20:32:02.767Z,11.13
2023-01-13T20:34:31.396Z,8.90
2023-01-13T20:37:00.579Z,10.83
2023-01-13T20:39:28.265Z,10.60
2023-01-13T20:42:14.642Z,6.20
2023-01-13T20:44:43.997Z,7.83
2023-01-13T20:47:14.509Z,9.23
2023-01-13T20:49:42.625Z,7.87
2023-01-13T20:52:10.700Z,6.03
2023-01-13T20:54:38.826Z,7.87
2023-01-13T20:57:09.401Z,7.00
2023-01-13T20:59:37.495Z,5.37
2023-01-13T21:02:05.717Z,7.43
2023-01-13T21:04:34.927Z,8.30
2023-01-13T21:07:02.646Z,7.60
2023-01-13T21:09:32.248Z,8.27
2023-01-13T21:12:17.616Z,6.50
2023-01-13T21:15:02.903Z,11.00
2023-01-13T21:17:49.695Z,5.40
2023-01-13T21:20:19.000Z,4.47
2023-01-13T21:22:47.803Z,12.83
2023-01-13T21:25:16.616Z,8.63
2023-01-13T21:27:45.060Z,9.63
2023-01-13T21:30:14.906Z,14.63
2023-01-13T21:32:44.238Z,7.87
2023-01-13T21:35:12.329Z,9.20
2023-01-13T21:37:42.573Z,9.50
2023-01-13T21:40:11.999Z,8.40
2023-01-13T21:42:54.236Z,8.73
2023-01-13T21:45:39.260Z,7.83
2023-01-13T21:48:07.682Z,7.90
2023-01-13T21:50:35.357Z,8.30
2023-01-13T21:53:05.704Z,6.70
2023-01-13T21:55:33.826Z,7.97
2023-01-13T21:58:07.921Z,4.57
2023-01-13T22:00:36.086Z,6.07
2023-01-13T22:03:04.373Z,6.13
2023-01-13T22:05:32.584Z,8.27
2023-01-13T22:08:00.833Z,7.63
2023-01-13T22:10:31.069Z,10.33
2023-01-13T22:12:59.988Z,9.47
2023-01-13T22:15:29.366Z,7.43
2023-01-13T22:17:57.977Z,7.87
2023-01-13T22:20:26.617Z,7.70
2023-01-13T22:22:54.474Z,17.00
2023-01-13T22:25:22.235Z,9.90
2023-01-13T22:27:52.742Z,6.43
2023-01-13T22:30:21.918Z,5.03
2023-01-13T22:32:50.131Z,5.70
2023-01-13T22:35:18.089Z,6.47
2023-01-13T22:37:45.802Z,8.17
2023-01-13T22:40:13.830Z,8.33
2023-01-13T22:42:42.440Z,8.77
2023-01-13T22:45:12.768Z,11.00
2023-01-13T22:47:40.663Z,7.57
2023-01-13T22:50:10.448Z,8.17
2023-01-13T22:52:38.233Z,8.17
2023-01-13T22:55:06.854Z,6.30
2023-01-13T22:57:46.621Z,14.93
2023-01-13T23:00:18.667Z,8.03
2023-01-13T23:02:48.336Z,5.70
2023-01-13T23:05:17.422Z,6.03
2023-01-13T23:07:45.295Z,7.83
2023-01-13T23:10:13.234Z,9.30
2023-01-13T23:12:40.861Z,8.10
2023-01-13T23:15:09.976Z,9.73
2023-01-13T23:17:38.535Z,9.47
2023-01-13T23:20:08.018Z,9.27
2023-01-13T23:22:38.708Z,8.63
2023-01-13T23:25:07.881Z,5.37
2023-01-13T23:27:35.846Z,10.03
2023-01-13T23:30:04.800Z,6.63
2023-01-13T23:32:32.562Z,6.60
2023-01-13T23:35:00.241Z,9.97
2023-01-13T23:37:29.535Z,5.10
2023-01-13T23:39:57.253Z,6.67
2023-01-13T23:42:25.253Z,9.70
2023-01-13T23:44:53.374Z,5.93
2023-01-13T23:47:21.050Z,7.93
2023-01-13T23:49:48.706Z,4.60
2023-01-13T23:52:17.018Z,6.20
2023-01-13T23:54:46.075Z,8.20
2023-01-13T23:57:13.767Z,6.13
2023-01-13T23:59:41.540Z,8.90
